Aeroporto :
LOGIN :

Iscrizione | Disclaimer

   EN    FR    IT 

 










Sommario :    VFR   VFR Marginale   IFR   IFR Intensivo   IFR Molto Intensivo
Visibilità : 
Base nubi : 
>= 8 km
>= 3000ft
5 / 8 km
1000 / 3000 ft
1500m / 5 km
500 / 1000 ft
800 / 1500m
200 / 500 ft
< 800m
< 200 ft
Simboli :   Temporali  Nebbia  Neve Forte  Precipitazioni Forti  Vento > 20 kt
SIGMETs :   Varie  Temporali  Ghiacco  Turbolenza  Onda orograficha  Ceneri Vulcaniche






- Altitudine del aeroporto : 464 ft
- Codice IATA : EVX


LFOE - Evreux

ULTIMO METAR :
  • 250230Z AUTO 22004KT CAVOK 11/10 Q1021 NOSIG

METARs OBSOLETI :
  • 250200Z AUTO 21004KT CAVOK 11/09 Q1021 NOSIG
  • 250130Z AUTO 21003KT CAVOK 11/09 Q1021 NOSIG
  • 250100Z AUTO 22003KT CAVOK 11/09 Q1022 NOSIG
  • 250030Z AUTO 22004KT CAVOK 10/09 Q1022 NOSIG
  • 250000Z AUTO 20003KT CAVOK 11/09 Q1022 NOSIG
  • 242330Z AUTO 21003KT CAVOK 12/09 Q1022 NOSIG

TAF TAF LFOE
Valido dal 25 a 03 ore il 26 a 03 ore UTC


250200Z 2503/2603 VRB02KT 9999 SCT030 BKN060
TEMPO 2507/2510 3000 -RADZ SCT004 OVC008
BECMG 2510/2511 25008KT
BECMG 2513/2515 4000 -RA BKN020 BKN040
TEMPO 2515/2518 29010G20KT 2000 SHRA BKN010CB BKN030
BECMG 2520/2522 8000 NSW BKN010 BKN030
BECMG 2600/2601 18003KT 4000 RA SCT004 BKN015



MetMap, La meteo Aeronautica in un colpo d'occhio ! - Copyright ORBIFLY Dicembre 2007 - Disclaimer

ORBIFLY MET'MAP TEAM :

Programmazione e sviluppo : Alexandra Zaïnal
Concezione : Baudouin d'Aumeries
Aiuto per la programmazione : Marc-Olivier Méhu
Supporto tecnico e logistico : Manuel Goepfert
Aiuto per la traduzione : Arnaldo La Scala

Contatto : metmap@orbifly.com




FONTI E CREDITI :

   NOAA